createdAt,value
2018-10-12T00:01:50.570Z,100495.64
2018-10-12T00:04:19.523Z,100494.80
2018-10-12T00:06:48.468Z,100504.52
2018-10-12T00:09:17.395Z,100503.34
2018-10-12T00:11:46.371Z,100508.21
2018-10-12T00:14:15.294Z,100510.91
2018-10-12T00:16:44.266Z,100505.39
2018-10-12T00:19:13.186Z,100510.84
2018-10-12T00:21:42.166Z,100505.34
2018-10-12T00:24:11.213Z,100515.80
2018-10-12T00:26:40.193Z,100506.35
2018-10-12T00:29:09.126Z,100508.42
2018-10-12T00:31:38.094Z,100515.48
2018-10-12T00:34:07.030Z,100512.80
2018-10-12T00:36:36.002Z,100517.42
2018-10-12T00:39:06.174Z,100511.84
2018-10-12T00:41:35.210Z,100502.13
2018-10-12T00:44:04.118Z,100496.09
2018-10-12T00:46:33.176Z,100499.53
2018-10-12T00:49:02.082Z,100497.95
2018-10-12T00:51:31.046Z,100498.42
2018-10-12T00:53:59.945Z,100503.56
2018-10-12T00:56:28.928Z,100505.35
2018-10-12T00:58:57.834Z,100511.80
2018-10-12T01:01:26.774Z,100515.80
2018-10-12T01:03:55.686Z,100520.52
2018-10-12T01:06:24.665Z,100523.38
2018-10-12T01:08:53.605Z,100532.33
2018-10-12T01:11:22.520Z,100543.02
2018-10-12T01:13:51.488Z,100546.20
2018-10-12T01:16:20.381Z,100544.40
2018-10-12T01:18:49.961Z,100547.50
2018-10-12T01:21:18.882Z,100545.49
2018-10-12T01:23:47.854Z,100539.08
2018-10-12T01:26:16.833Z,100540.30
2018-10-12T01:28:50.205Z,100544.27
2018-10-12T01:31:19.582Z,100548.92
2018-10-12T01:33:48.565Z,100546.47
2018-10-12T01:36:17.474Z,100541.83
2018-10-12T01:38:46.602Z,100534.98
2018-10-12T01:41:15.526Z,100540.88
2018-10-12T01:43:44.529Z,100543.82
2018-10-12T01:46:13.458Z,100555.91
2018-10-12T01:48:42.432Z,100552.09
2018-10-12T01:51:11.333Z,100554.11
2018-10-12T01:53:40.285Z,100552.75
2018-10-12T01:56:09.222Z,100550.05
2018-10-12T01:58:38.200Z,100549.80
2018-10-12T02:01:07.326Z,100549.98
2018-10-12T02:03:36.265Z,100544.06
2018-10-12T02:06:05.178Z,100555.70
2018-10-12T02:08:34.157Z,100551.20
2018-10-12T02:11:03.110Z,100558.85
2018-10-12T02:13:32.058Z,100567.13
2018-10-12T02:16:00.986Z,100579.51
2018-10-12T02:18:29.899Z,100587.81
2018-10-12T02:20:58.877Z,100577.80
2018-10-12T02:23:27.804Z,100576.61
2018-10-12T02:25:56.782Z,100582.04
2018-10-12T02:28:25.714Z,100581.20
2018-10-12T02:30:54.678Z,100576.91
2018-10-12T02:33:23.608Z,100579.85
2018-10-12T02:35:52.562Z,100579.23
2018-10-12T02:38:21.606Z,100582.58
2018-10-12T02:40:50.565Z,100587.63
2018-10-12T02:43:19.488Z,100591.59
2018-10-12T02:45:48.556Z,100593.63
2018-10-12T02:48:17.477Z,100602.92
2018-10-12T02:50:46.443Z,100598.83
2018-10-12T02:53:15.394Z,100606.36
2018-10-12T02:55:44.413Z,100617.85
2018-10-12T02:58:13.330Z,100618.12
2018-10-12T03:00:42.282Z,100620.63
2018-10-12T03:03:11.206Z,100627.01
2018-10-12T03:05:40.159Z,100630.72
2018-10-12T03:08:09.097Z,100634.98
2018-10-12T03:10:38.066Z,100633.36
2018-10-12T03:13:07.022Z,100631.42
2018-10-12T03:15:36.002Z,100630.20
2018-10-12T03:18:04.929Z,100639.17
2018-10-12T03:20:33.912Z,100638.95
2018-10-12T03:23:02.834Z,100623.36
2018-10-12T03:25:31.844Z,100629.39
2018-10-12T03:28:11.764Z,100629.36
2018-10-12T03:30:40.726Z,100623.76
2018-10-12T03:33:09.689Z,100617.94
2018-10-12T03:35:38.705Z,100618.80
2018-10-12T03:38:07.666Z,100621.95
2018-10-12T03:40:36.733Z,100613.97
2018-10-12T03:43:05.667Z,100623.95
2018-10-12T03:45:34.683Z,100640.23
2018-10-12T03:48:03.580Z,100647.58
2018-10-12T03:50:32.527Z,100651.39
2018-10-12T03:53:01.515Z,100653.52
2018-10-12T03:55:30.413Z,100663.31
2018-10-12T03:57:59.385Z,100665.73
2018-10-12T04:00:28.414Z,100671.53
2018-10-12T04:02:57.371Z,100672.48
2018-10-12T04:05:26.366Z,100672.41
2018-10-12T04:07:55.347Z,100675.11
2018-10-12T04:10:24.271Z,100680.07
2018-10-12T04:12:53.346Z,100681.86
2018-10-12T04:15:22.251Z,100688.94
2018-10-12T04:17:51.255Z,100692.59
2018-10-12T04:20:20.226Z,100701.56
2018-10-12T04:22:49.237Z,100713.55
2018-10-12T04:25:18.153Z,100726.07
2018-10-12T04:27:47.157Z,100722.77
2018-10-12T04:30:16.097Z,100724.73
2018-10-12T04:32:45.086Z,100730.33
2018-10-12T04:35:14.010Z,100732.81
2018-10-12T04:37:42.991Z,100740.39
2018-10-12T04:41:18.423Z,100734.30
2018-10-12T04:43:48.695Z,100735.12
2018-10-12T04:46:20.521Z,100732.69
2018-10-12T04:48:50.639Z,100729.34
2018-10-12T04:51:24.336Z,100734.66
2018-10-12T04:53:53.479Z,100738.93
2018-10-12T04:56:22.766Z,100741.78
2018-10-12T04:58:51.736Z,100752.04
2018-10-12T05:01:20.713Z,100751.84
2018-10-12T05:03:49.698Z,100755.26
2018-10-12T05:06:18.671Z,100770.89
2018-10-12T05:08:47.643Z,100769.14
2018-10-12T05:11:16.628Z,100765.05
2018-10-12T05:13:45.619Z,100760.17
2018-10-12T05:16:14.555Z,100764.70
2018-10-12T05:18:43.563Z,100762.10
2018-10-12T05:21:12.475Z,100752.01
2018-10-12T05:23:41.445Z,100748.95
2018-10-12T05:26:10.426Z,100760.13
2018-10-12T05:28:39.698Z,100764.23
2018-10-12T05:31:08.927Z,100768.39
2018-10-12T05:33:37.941Z,100763.98
2018-10-12T05:36:07.049Z,100767.36
2018-10-12T05:38:36.017Z,100771.32
2018-10-12T05:41:04.958Z,100771.20
2018-10-12T05:43:34.044Z,100781.94
2018-10-12T05:46:02.959Z,100791.11
2018-10-12T05:48:42.853Z,100800.64
2018-10-12T05:51:13.118Z,100799.05
2018-10-12T05:53:42.347Z,100809.41
2018-10-12T05:56:12.126Z,100810.27
2018-10-12T05:58:41.118Z,100805.31
2018-10-12T06:01:10.151Z,100820.13
2018-10-12T06:03:39.128Z,100830.89
2018-10-12T06:06:08.367Z,100832.50
2018-10-12T06:08:37.822Z,100832.88
2018-10-12T06:11:06.932Z,100847.81
2018-10-12T06:13:35.935Z,100845.33
2018-10-12T06:16:04.957Z,100852.75
2018-10-12T06:18:33.935Z,100857.67
2018-10-12T06:21:02.951Z,100857.24
2018-10-12T06:23:31.890Z,100857.84
2018-10-12T06:26:00.895Z,100856.06
2018-10-12T06:28:29.946Z,100855.31
2018-10-12T06:30:58.909Z,100861.27
2018-10-12T06:33:27.857Z,100873.02
2018-10-12T06:35:56.834Z,100869.56
2018-10-12T06:38:25.909Z,100873.86
2018-10-12T06:40:55.000Z,100878.56
2018-10-12T06:43:24.103Z,100878.56
2018-10-12T06:45:53.088Z,100875.91
2018-10-12T06:48:22.147Z,100884.97
2018-10-12T06:50:51.166Z,100887.41
2018-10-12T06:53:20.126Z,100888.05
2018-10-12T06:55:49.096Z,100892.69
2018-10-12T06:58:18.019Z,100897.44
2018-10-12T07:00:46.986Z,100905.69
2018-10-12T07:03:15.983Z,100906.63
2018-10-12T07:05:45.062Z,100909.27
2018-10-12T07:08:13.966Z,100904.47
2018-10-12T07:10:42.940Z,100914.58
2018-10-12T07:13:11.849Z,100923.51
2018-10-12T07:15:40.806Z,100924.91
2018-10-12T07:18:09.779Z,100925.70
2018-10-12T07:20:38.813Z,100922.19
2018-10-12T07:23:07.970Z,100929.15
2018-10-12T07:25:37.106Z,100937.69
2018-10-12T07:28:06.042Z,100946.71
2018-10-12T07:30:35.034Z,100947.80
2018-10-12T07:33:03.946Z,100954.23
2018-10-12T07:35:32.930Z,100948.61
2018-10-12T07:38:01.837Z,100948.09
2018-10-12T07:40:30.839Z,100963.30
2018-10-12T07:42:59.779Z,100969.33
2018-10-12T07:45:28.698Z,100962.70
2018-10-12T07:47:58.045Z,100976.28
2018-10-12T07:50:27.060Z,100963.26
2018-10-12T07:52:56.002Z,100956.14
2018-10-12T07:55:24.965Z,100971.36
2018-10-12T07:57:53.941Z,100981.08
2018-10-12T08:00:23.247Z,100975.58
2018-10-12T08:02:52.392Z,100980.28
2018-10-12T08:05:21.342Z,100973.80
2018-10-12T08:07:50.327Z,100970.97
2018-10-12T08:10:19.275Z,100976.50
2018-10-12T08:12:48.251Z,100969.76
2018-10-12T08:15:17.158Z,100973.70
2018-10-12T08:17:46.116Z,100974.89
2018-10-12T08:20:15.181Z,100978.27
2018-10-12T08:22:44.281Z,100975.41
2018-10-12T08:25:13.218Z,100984.20
2018-10-12T08:27:42.217Z,100991.97
2018-10-12T08:30:11.292Z,100986.12
2018-10-12T08:32:40.270Z,100986.62
2018-10-12T08:35:09.327Z,100990.72
2018-10-12T08:37:38.310Z,100988.67
2018-10-12T08:40:07.478Z,100998.21
2018-10-12T08:42:36.579Z,100991.57
2018-10-12T08:45:05.498Z,100996.41
2018-10-12T08:47:34.518Z,100998.50
2018-10-12T08:50:03.458Z,101001.19
2018-10-12T08:52:32.442Z,101000.69
2018-10-12T08:55:01.438Z,101002.31
2018-10-12T08:57:30.502Z,101004.56
2018-10-12T08:59:59.459Z,100997.08
2018-10-12T09:02:28.460Z,101009.61
2018-10-12T09:04:57.426Z,101007.99
2018-10-12T09:07:26.429Z,101009.33
2018-10-12T09:09:55.467Z,101000.66
2018-10-12T09:12:24.418Z,100992.68
2018-10-12T09:14:53.466Z,100997.29
2018-10-12T09:17:22.506Z,101004.70
2018-10-12T09:19:51.497Z,101009.36
2018-10-12T09:22:20.498Z,101000.55
2018-10-12T09:24:49.450Z,101009.69
2018-10-12T09:27:18.469Z,101006.22
2018-10-12T09:29:47.434Z,101012.77
2018-10-12T09:32:16.496Z,101019.92
2018-10-12T09:34:45.547Z,101016.55
2018-10-12T09:37:14.591Z,101014.33
2018-10-12T09:39:43.618Z,101015.59
2018-10-12T09:42:12.518Z,101016.81
2018-10-12T09:44:41.490Z,101016.98
2018-10-12T09:47:10.525Z,101003.47
2018-10-12T09:49:39.666Z,101011.56
2018-10-12T09:52:09.658Z,101012.10
2018-10-12T09:54:38.633Z,101015.45
2018-10-12T09:57:13.303Z,101013.16
2018-10-12T09:59:42.520Z,101011.39
2018-10-12T10:02:16.753Z,101009.80
2018-10-12T10:04:46.022Z,101009.98
2018-10-12T10:07:14.943Z,101008.56
2018-10-12T10:09:43.890Z,101010.19
2018-10-12T10:12:12.970Z,101005.86
2018-10-12T10:14:41.983Z,101001.21
2018-10-12T10:17:10.906Z,101001.95
2018-10-12T10:19:39.874Z,100997.90
2018-10-12T10:22:08.785Z,100996.41
2018-10-12T10:24:37.714Z,101000.23
2018-10-12T10:27:06.819Z,101001.02
2018-10-12T10:29:35.767Z,100998.96
2018-10-12T10:32:04.773Z,100997.73
2018-10-12T10:34:33.751Z,101005.77
2018-10-12T10:37:02.723Z,101001.65
2018-10-12T10:39:31.619Z,100999.34
2018-10-12T10:42:00.599Z,100999.16
2018-10-12T10:44:29.599Z,100993.79
2018-10-12T10:46:58.626Z,100994.31
2018-10-12T10:49:27.562Z,100989.45
2018-10-12T10:51:56.510Z,100999.19
2018-10-12T10:54:25.419Z,100989.73
2018-10-12T10:56:58.491Z,100990.39
2018-10-12T10:59:27.470Z,100982.22
2018-10-12T11:01:56.497Z,100977.98
2018-10-12T11:04:25.398Z,100975.27
2018-10-12T11:06:54.388Z,100975.09
2018-10-12T11:09:23.287Z,100970.17
2018-10-12T11:11:52.227Z,100960.52
2018-10-12T11:14:21.182Z,100967.66
2018-10-12T11:16:50.123Z,100961.34
2018-10-12T11:19:19.250Z,100952.61
2018-10-12T11:21:48.290Z,100953.91
2018-10-12T11:24:17.216Z,100947.95
2018-10-12T11:26:46.284Z,100944.36
2018-10-12T11:29:15.205Z,100940.31
2018-10-12T11:31:44.185Z,100946.16
2018-10-12T11:34:13.088Z,100934.11
2018-10-12T11:36:42.068Z,100941.23
2018-10-12T11:39:13.816Z,100935.99
2018-10-12T11:41:42.778Z,100937.77
2018-10-12T11:44:11.742Z,100923.12
2018-10-12T11:46:40.701Z,100927.73
2018-10-12T11:49:09.655Z,100939.44
2018-10-12T11:51:38.630Z,100932.98
2018-10-12T11:54:07.622Z,100940.80
2018-10-12T11:56:36.577Z,100935.54
2018-10-12T11:59:05.537Z,100936.36
2018-10-12T12:01:35.182Z,100932.37
2018-10-12T12:04:04.161Z,100926.59
2018-10-12T12:06:33.085Z,100929.39
2018-10-12T12:09:02.049Z,100927.11
2018-10-12T12:11:30.970Z,100927.14
2018-10-12T12:14:00.044Z,100921.89
2018-10-12T12:16:28.920Z,100917.36
2018-10-12T12:18:57.918Z,100917.39
2018-10-12T12:21:26.934Z,100920.77
2018-10-12T12:23:55.888Z,100917.38
2018-10-12T12:26:24.826Z,100921.29
2018-10-12T12:28:53.786Z,100921.69
2018-10-12T12:31:22.754Z,100916.25
2018-10-12T12:33:51.705Z,100907.50
2018-10-12T12:36:20.634Z,100906.36
2018-10-12T12:38:49.638Z,100902.59
2018-10-12T12:41:18.619Z,100899.70
2018-10-12T12:43:47.554Z,100893.36
2018-10-12T12:46:16.794Z,100896.48
2018-10-12T12:48:46.027Z,100900.03
2018-10-12T12:51:15.019Z,100899.05
2018-10-12T12:53:44.568Z,100902.64
2018-10-12T12:56:13.715Z,100899.58
2018-10-12T12:58:42.833Z,100900.30
2018-10-12T13:01:11.733Z,100889.93
2018-10-12T13:03:40.700Z,100898.22
2018-10-12T13:06:09.629Z,100889.69
2018-10-12T13:08:38.702Z,100895.92
2018-10-12T13:11:07.962Z,100890.16
2018-10-12T13:13:36.939Z,100897.61
2018-10-12T13:16:05.867Z,100892.36
2018-10-12T13:18:34.765Z,100890.47
2018-10-12T13:21:03.834Z,100892.99
2018-10-12T13:23:32.735Z,100895.48
2018-10-12T13:26:01.833Z,100886.44
2018-10-12T13:28:30.621Z,100891.63
2018-10-12T13:30:59.603Z,100890.47
2018-10-12T13:33:28.506Z,100889.42
2018-10-12T13:35:57.454Z,100897.61
2018-10-12T13:38:26.338Z,100896.03
2018-10-12T13:40:55.275Z,100909.45
2018-10-12T13:43:24.182Z,100903.54
2018-10-12T13:45:53.148Z,100900.65
2018-10-12T13:48:22.078Z,100908.37
2018-10-12T13:50:51.037Z,100909.47
2018-10-12T13:53:19.925Z,100906.26
2018-10-12T13:55:48.889Z,100905.98
2018-10-12T13:58:17.826Z,100901.59
2018-10-12T14:00:46.772Z,100904.95
2018-10-12T14:03:15.683Z,100904.45
2018-10-12T14:05:44.667Z,100905.21
2018-10-12T14:08:13.786Z,100899.50
2018-10-12T14:10:42.714Z,100901.28
2018-10-12T14:13:11.726Z,100906.59
2018-10-12T14:15:40.647Z,100909.54
2018-10-12T14:18:09.594Z,100899.88
2018-10-12T14:20:38.525Z,100911.23
2018-10-12T14:23:07.595Z,100912.58
2018-10-12T14:25:36.608Z,100917.23
2018-10-12T14:28:05.509Z,100909.83
2018-10-12T14:30:34.467Z,100914.63
2018-10-12T14:33:03.390Z,100905.35
2018-10-12T14:35:32.354Z,100904.14
2018-10-12T14:38:01.593Z,100905.73
2018-10-12T14:40:30.274Z,100911.78
2018-10-12T14:42:59.188Z,100909.66
2018-10-12T14:45:28.146Z,100906.62
2018-10-12T14:47:57.106Z,100910.20
2018-10-12T14:50:26.046Z,100914.12
2018-10-12T14:52:55.027Z,100906.64
2018-10-12T14:55:24.053Z,100907.50
2018-10-12T14:57:52.927Z,100906.36
2018-10-12T15:00:21.863Z,100904.98
2018-10-12T15:02:50.759Z,100906.29
2018-10-12T15:05:19.785Z,100905.88
2018-10-12T15:07:48.671Z,100907.17
2018-10-12T15:10:17.625Z,100908.45
2018-10-12T15:12:46.559Z,100904.93
2018-10-12T15:15:18.846Z,100908.86
2018-10-12T15:17:48.814Z,100908.70
2018-10-12T15:20:18.094Z,100907.28
2018-10-12T15:22:46.999Z,100904.00
2018-10-12T15:25:15.936Z,100914.56
2018-10-12T15:27:45.106Z,100911.16
2018-10-12T15:30:15.107Z,100910.45
2018-10-12T15:32:44.174Z,100905.98
2018-10-12T15:35:13.066Z,100912.11
2018-10-12T15:37:42.897Z,100905.06
2018-10-12T15:40:11.766Z,100913.38
2018-10-12T15:42:42.094Z,100912.20
2018-10-12T15:45:10.657Z,100912.31
2018-10-12T15:47:39.607Z,100908.22
2018-10-12T15:50:08.530Z,100909.70
2018-10-12T15:52:37.506Z,100912.92
2018-10-12T15:55:06.455Z,100915.98
2018-10-12T15:57:35.471Z,100915.89
2018-10-12T16:00:04.453Z,100916.17
2018-10-12T16:02:33.426Z,100918.47
2018-10-12T16:05:02.332Z,100918.70
2018-10-12T16:07:31.286Z,100913.20
2018-10-12T16:10:00.405Z,100918.27
2018-10-12T16:12:29.404Z,100915.83
2018-10-12T16:14:58.453Z,100916.61
2018-10-12T16:17:27.414Z,100918.44
2018-10-12T16:19:56.352Z,100919.98
2018-10-12T16:22:25.416Z,100921.07
2018-10-12T16:25:05.205Z,100922.40
2018-10-12T16:27:34.166Z,100920.09
2018-10-12T16:30:03.192Z,100919.97
2018-10-12T16:32:32.174Z,100912.02
2018-10-12T16:35:01.195Z,100912.02
2018-10-12T16:37:30.138Z,100913.80
2018-10-12T16:39:59.181Z,100911.55
2018-10-12T16:42:28.186Z,100917.80
2018-10-12T16:44:57.146Z,100919.96
2018-10-12T16:47:26.101Z,100922.17
2018-10-12T16:49:55.055Z,100917.09
2018-10-12T16:52:23.994Z,100924.58
2018-10-12T16:54:53.943Z,100929.30
2018-10-12T16:57:30.886Z,100929.90
2018-10-12T16:59:59.913Z,100936.34
2018-10-12T17:02:29.034Z,100936.80
2018-10-12T17:04:57.966Z,100938.43
2018-10-12T17:07:26.931Z,100942.27
2018-10-12T17:09:55.858Z,100952.66
2018-10-12T17:12:24.845Z,100948.53
2018-10-12T17:14:53.804Z,100952.00
2018-10-12T17:17:22.765Z,100957.98
2018-10-12T17:19:51.718Z,100957.23
2018-10-12T17:22:20.707Z,100960.28
2018-10-12T17:24:49.638Z,100960.05
2018-10-12T17:27:18.610Z,100960.04
2018-10-12T17:29:47.629Z,100956.64
2018-10-12T17:32:16.633Z,100960.91
2018-10-12T17:34:45.557Z,100962.02
2018-10-12T17:37:14.526Z,100964.96
2018-10-12T17:39:43.459Z,100965.55
2018-10-12T17:42:15.782Z,100964.22
2018-10-12T17:44:44.877Z,100961.70
2018-10-12T17:47:14.451Z,100967.25
2018-10-12T17:49:43.469Z,100970.48
2018-10-12T17:52:12.436Z,100963.13
2018-10-12T17:54:41.381Z,100976.75
2018-10-12T17:57:10.396Z,100983.27
2018-10-12T17:59:39.336Z,100978.16
2018-10-12T18:02:08.302Z,100985.05
2018-10-12T18:04:37.253Z,100978.39
2018-10-12T18:07:06.444Z,100981.43
2018-10-12T18:09:35.414Z,100984.75
2018-10-12T18:12:04.367Z,100983.43
2018-10-12T18:14:33.286Z,100985.55
2018-10-12T18:17:02.270Z,100989.03
2018-10-12T18:19:31.696Z,100981.88
2018-10-12T18:22:00.797Z,100990.17
2018-10-12T18:24:29.766Z,100991.34
2018-10-12T18:26:58.846Z,100994.53
2018-10-12T18:29:27.961Z,100983.52
2018-10-12T18:31:56.947Z,100988.41
2018-10-12T18:34:25.881Z,100989.20
2018-10-12T18:36:54.925Z,100993.37
2018-10-12T18:39:23.816Z,100997.12
2018-10-12T18:41:52.764Z,100999.13
2018-10-12T18:44:21.975Z,101009.77
2018-10-12T18:46:51.148Z,101008.34
2018-10-12T18:49:20.138Z,101006.42
2018-10-12T18:51:49.663Z,101011.58
2018-10-12T18:54:18.663Z,101014.78
2018-10-12T18:56:47.559Z,101004.69
2018-10-12T18:59:16.565Z,101010.56
2018-10-12T19:01:45.458Z,101009.91
2018-10-12T19:04:14.386Z,101011.34
2018-10-12T19:06:43.388Z,101006.72
2018-10-12T19:09:12.293Z,101005.95
2018-10-12T19:11:41.915Z,101011.42
2018-10-12T19:14:11.199Z,101012.73
2018-10-12T19:16:40.431Z,101017.36
2018-10-12T19:19:09.771Z,101010.25
2018-10-12T19:21:38.886Z,101015.94
2018-10-12T19:24:08.164Z,101008.77
2018-10-12T19:26:37.347Z,101013.39
2018-10-12T19:29:07.209Z,101006.80
2018-10-12T19:31:38.300Z,101017.03
2018-10-12T19:34:07.606Z,101013.40
2018-10-12T19:36:36.654Z,101018.71
2018-10-12T19:39:07.845Z,101018.16
2018-10-12T19:41:37.357Z,101020.85
2018-10-12T19:44:06.821Z,101018.20
2018-10-12T19:46:35.925Z,101017.36
2018-10-12T19:49:06.134Z,101023.28
2018-10-12T19:51:35.246Z,101021.39
2018-10-12T19:54:04.354Z,101018.99
2018-10-12T19:56:33.468Z,101030.16
2018-10-12T19:59:03.387Z,101026.08
2018-10-12T20:01:32.515Z,101030.55
2018-10-12T20:04:01.701Z,101037.24
2018-10-12T20:06:41.847Z,101042.09
2018-10-12T20:09:13.737Z,101042.77
2018-10-12T20:11:42.941Z,101044.84
2018-10-12T20:14:12.636Z,101044.63
2018-10-12T20:16:41.737Z,101038.66
2018-10-12T20:19:10.969Z,101047.70
2018-10-12T20:21:41.822Z,101043.48
2018-10-12T20:24:11.442Z,101046.20
2018-10-12T20:26:40.611Z,101055.27
2018-10-12T20:29:10.236Z,101049.05
2018-10-12T20:31:39.487Z,101049.80
2018-10-12T20:34:08.768Z,101052.62
2018-10-12T20:36:37.924Z,101045.05
2018-10-12T20:39:09.310Z,101045.58
2018-10-12T20:41:38.606Z,101044.06
2018-10-12T20:44:07.897Z,101043.41
2018-10-12T20:46:37.529Z,101042.38
2018-10-12T20:49:06.709Z,101046.27
2018-10-12T20:51:35.912Z,101044.75
2018-10-12T20:54:05.056Z,101052.86
2018-10-12T20:56:34.161Z,101051.50
2018-10-12T20:59:03.397Z,101049.30
2018-10-12T21:01:32.544Z,101054.03
2018-10-12T21:04:01.895Z,101048.47
2018-10-12T21:06:31.266Z,101052.86
2018-10-12T21:09:00.535Z,101055.67
2018-10-12T21:11:29.727Z,101047.45
2018-10-12T21:13:58.864Z,101045.68
2018-10-12T21:16:27.994Z,101051.61
2018-10-12T21:18:57.257Z,101051.44
2018-10-12T21:21:26.483Z,101054.20
2018-10-12T21:23:55.741Z,101050.77
2018-10-12T21:26:24.846Z,101057.65
2018-10-12T21:28:54.117Z,101061.83
2018-10-12T21:31:23.227Z,101061.56
2018-10-12T21:33:52.386Z,101056.13
2018-10-12T21:36:21.478Z,101050.87
2018-10-12T21:38:50.553Z,101052.80
2018-10-12T21:41:23.254Z,101048.77
2018-10-12T21:43:52.354Z,101047.93
2018-10-12T21:46:21.481Z,101049.45
2018-10-12T21:48:50.597Z,101038.77
2018-10-12T21:51:19.756Z,101039.26
2018-10-12T21:53:51.430Z,101037.64
2018-10-12T21:56:20.729Z,101038.13
2018-10-12T21:58:52.698Z,101035.14
2018-10-12T22:01:21.849Z,101029.40
2018-10-12T22:03:50.959Z,101033.96
2018-10-12T22:06:20.086Z,101032.31
2018-10-12T22:08:53.268Z,101032.62
2018-10-12T22:11:22.428Z,101026.19
2018-10-12T22:13:51.602Z,101022.09
2018-10-12T22:16:20.677Z,101020.33
2018-10-12T22:18:49.777Z,101017.30
2018-10-12T22:21:18.895Z,101015.19
2018-10-12T22:23:48.027Z,101017.11
2018-10-12T22:26:23.428Z,101019.50
2018-10-12T22:28:52.537Z,101020.13
2018-10-12T22:31:21.662Z,101016.94
2018-10-12T22:33:50.757Z,101020.72
2018-10-12T22:36:19.912Z,101017.74
2018-10-12T22:38:49.009Z,101016.28
2018-10-12T22:41:18.103Z,101023.11
2018-10-12T22:43:47.289Z,101016.82
2018-10-12T22:46:16.441Z,101019.25
2018-10-12T22:48:45.490Z,101013.60
2018-10-12T22:51:14.608Z,101010.30
2018-10-12T22:53:43.776Z,101007.27
2018-10-12T22:56:12.944Z,101010.03
2018-10-12T22:58:42.109Z,101007.44
2018-10-12T23:01:11.263Z,101008.84
2018-10-12T23:03:40.397Z,101010.15
2018-10-12T23:06:09.521Z,101008.86
2018-10-12T23:08:38.635Z,101015.07
2018-10-12T23:11:07.845Z,101015.94
2018-10-12T23:13:36.920Z,101017.10
2018-10-12T23:16:06.086Z,101005.92
2018-10-12T23:18:35.188Z,101002.22
2018-10-12T23:21:04.304Z,101007.79
2018-10-12T23:23:33.387Z,101009.34
2018-10-12T23:26:02.489Z,101008.09
2018-10-12T23:28:31.595Z,101004.45
2018-10-12T23:31:03.709Z,100998.70
2018-10-12T23:33:43.670Z,100991.63
2018-10-12T23:36:12.825Z,100997.44
2018-10-12T23:38:41.903Z,101001.27
2018-10-12T23:41:10.990Z,101000.65
2018-10-12T23:43:40.130Z,100995.38
2018-10-12T23:46:09.299Z,100995.93
2018-10-12T23:48:38.457Z,100995.31
2018-10-12T23:51:08.374Z,100983.89
2018-10-12T23:53:37.555Z,100979.84
2018-10-12T23:56:07.464Z,100992.55
2018-10-12T23:58:36.570Z,100989.52
